Airport View

Enter AWOS ICAO identifier for current METAR.

ex. KFNL

KTTA 300425Z AUTO 19005KT 10SM SCT026 BKN044 BKN055 23/23 A2951 RMK AO2 T02300227

30 Oct 2020 04:30

Frequency: 120.625

Phone: 919-708-5382

Other Area AWOS: KSCR - KIGX - KHRJ - KRDU

TAF AMD KRDU 300201Z 3002/3024 21014G21KT P6SM BKN015 OVC240 TEMPO 3003/3006 VRB15G35KT 2SM TSRA BKN025CB FM300600 25010G20KT P6SM SCT020 BKN025 FM301300 31011G19KT P6SM FEW025